sensor_id;sensor_type;location;lat;lon;timestamp;P1;durP1;ratioP1;P2;durP2;ratioP2
5022;SDS011;2530;47.990;7.866;2023-01-15T00:01:16;0.40;;;0.30;;
5022;SDS011;2530;47.990;7.866;2023-01-15T00:03:44;0.40;;;0.30;;
5022;SDS011;2530;47.990;7.866;2023-01-15T00:06:09;0.40;;;0.30;;
5022;SDS011;2530;47.990;7.866;2023-01-15T00:08:35;2.00;;;0.30;;
5022;SDS011;2530;47.990;7.866;2023-01-15T00:11:03;0.40;;;0.30;;
5022;SDS011;2530;47.990;7.866;2023-01-15T00:13:29;0.90;;;0.40;;
5022;SDS011;2530;47.990;7.866;2023-01-15T00:16:02;1.40;;;0.30;;
5022;SDS011;2530;47.990;7.866;2023-01-15T00:18:35;0.90;;;0.40;;
5022;SDS011;2530;47.990;7.866;2023-01-15T00:21:02;0.60;;;0.22;;
5022;SDS011;2530;47.990;7.866;2023-01-15T00:23:30;0.50;;;0.30;;
5022;SDS011;2530;47.990;7.866;2023-01-15T00:26:15;0.52;;;0.30;;
5022;SDS011;2530;47.990;7.866;2023-01-15T00:29:01;0.60;;;0.30;;
5022;SDS011;2530;47.990;7.866;2023-01-15T00:31:27;0.50;;;0.30;;
5022;SDS011;2530;47.990;7.866;2023-01-15T00:33:54;0.70;;;0.40;;
5022;SDS011;2530;47.990;7.866;2023-01-15T00:36:19;1.10;;;0.30;;
5022;SDS011;2530;47.990;7.866;2023-01-15T00:38:45;1.20;;;0.47;;
5022;SDS011;2530;47.990;7.866;2023-01-15T00:41:11;0.50;;;0.30;;
5022;SDS011;2530;47.990;7.866;2023-01-15T00:43:36;1.40;;;0.30;;
5022;SDS011;2530;47.990;7.866;2023-01-15T00:46:02;0.40;;;0.20;;
5022;SDS011;2530;47.990;7.866;2023-01-15T00:48:29;0.70;;;0.40;;
5022;SDS011;2530;47.990;7.866;2023-01-15T00:50:55;0.40;;;0.30;;
5022;SDS011;2530;47.990;7.866;2023-01-15T00:53:20;0.47;;;0.30;;
5022;SDS011;2530;47.990;7.866;2023-01-15T00:55:46;1.10;;;0.30;;
5022;SDS011;2530;47.990;7.866;2023-01-15T00:58:11;0.90;;;0.30;;
5022;SDS011;2530;47.990;7.866;2023-01-15T01:00:37;0.40;;;0.30;;
5022;SDS011;2530;47.990;7.866;2023-01-15T01:03:02;0.60;;;0.30;;
5022;SDS011;2530;47.990;7.866;2023-01-15T01:05:28;0.67;;;0.27;;
5022;SDS011;2530;47.990;7.866;2023-01-15T01:07:54;0.57;;;0.40;;
5022;SDS011;2530;47.990;7.866;2023-01-15T01:10:20;0.80;;;0.35;;
5022;SDS011;2530;47.990;7.866;2023-01-15T01:12:45;0.40;;;0.27;;
5022;SDS011;2530;47.990;7.866;2023-01-15T01:15:15;0.45;;;0.20;;
5022;SDS011;2530;47.990;7.866;2023-01-15T01:17:40;0.40;;;0.30;;
5022;SDS011;2530;47.990;7.866;2023-01-15T01:20:06;0.60;;;0.30;;
5022;SDS011;2530;47.990;7.866;2023-01-15T01:22:34;0.90;;;0.20;;
5022;SDS011;2530;47.990;7.866;2023-01-15T01:24:59;0.57;;;0.30;;
5022;SDS011;2530;47.990;7.866;2023-01-15T01:27:24;0.40;;;0.20;;
5022;SDS011;2530;47.990;7.866;2023-01-15T01:29:50;0.50;;;0.30;;
5022;SDS011;2530;47.990;7.866;2023-01-15T01:32:15;0.40;;;0.30;;
5022;SDS011;2530;47.990;7.866;2023-01-15T01:34:41;0.40;;;0.30;;
5022;SDS011;2530;47.990;7.866;2023-01-15T01:37:06;1.20;;;0.30;;
5022;SDS011;2530;47.990;7.866;2023-01-15T01:39:32;0.40;;;0.30;;
5022;SDS011;2530;47.990;7.866;2023-01-15T01:41:57;0.40;;;0.20;;
5022;SDS011;2530;47.990;7.866;2023-01-15T01:47:01;0.50;;;0.30;;
5022;SDS011;2530;47.990;7.866;2023-01-15T01:49:30;1.05;;;0.30;;
5022;SDS011;2530;47.990;7.866;2023-01-15T01:52:01;0.50;;;0.30;;
5022;SDS011;2530;47.990;7.866;2023-01-15T01:54:31;0.40;;;0.30;;
5022;SDS011;2530;47.990;7.866;2023-01-15T01:57:00;0.40;;;0.30;;
5022;SDS011;2530;47.990;7.866;2023-01-15T01:59:26;0.40;;;0.30;;
5022;SDS011;2530;47.990;7.866;2023-01-15T02:01:53;0.50;;;0.38;;
5022;SDS011;2530;47.990;7.866;2023-01-15T02:04:19;0.40;;;0.30;;
5022;SDS011;2530;47.990;7.866;2023-01-15T02:06:46;0.80;;;0.30;;
5022;SDS011;2530;47.990;7.866;2023-01-15T02:09:12;0.50;;;0.40;;
5022;SDS011;2530;47.990;7.866;2023-01-15T02:11:38;0.40;;;0.30;;
5022;SDS011;2530;47.990;7.866;2023-01-15T02:14:20;0.60;;;0.40;;
5022;SDS011;2530;47.990;7.866;2023-01-15T02:19:52;1.30;;;0.30;;
5022;SDS011;2530;47.990;7.866;2023-01-15T02:23:19;0.70;;;0.40;;
5022;SDS011;2530;47.990;7.866;2023-01-15T02:28:27;0.70;;;0.40;;
5022;SDS011;2530;47.990;7.866;2023-01-15T02:31:01;0.40;;;0.37;;
5022;SDS011;2530;47.990;7.866;2023-01-15T02:33:37;0.40;;;0.30;;
5022;SDS011;2530;47.990;7.866;2023-01-15T02:36:08;0.50;;;0.30;;
5022;SDS011;2530;47.990;7.866;2023-01-15T02:38:40;0.50;;;0.30;;
5022;SDS011;2530;47.990;7.866;2023-01-15T02:41:09;0.57;;;0.30;;
5022;SDS011;2530;47.990;7.866;2023-01-15T02:43:40;0.40;;;0.30;;
5022;SDS011;2530;47.990;7.866;2023-01-15T02:46:07;0.77;;;0.30;;
5022;SDS011;2530;47.990;7.866;2023-01-15T02:48:34;0.43;;;0.30;;
5022;SDS011;2530;47.990;7.866;2023-01-15T02:51:04;0.40;;;0.30;;
5022;SDS011;2530;47.990;7.866;2023-01-15T02:53:36;0.47;;;0.30;;
5022;SDS011;2530;47.990;7.866;2023-01-15T02:56:09;0.50;;;0.30;;
5022;SDS011;2530;47.990;7.866;2023-01-15T02:58:38;0.40;;;0.30;;
5022;SDS011;2530;47.990;7.866;2023-01-15T03:01:08;0.40;;;0.30;;
5022;SDS011;2530;47.990;7.866;2023-01-15T03:03:52;0.40;;;0.30;;
5022;SDS011;2530;47.990;7.866;2023-01-15T03:06:27;0.50;;;0.35;;
5022;SDS011;2530;47.990;7.866;2023-01-15T03:09:03;0.82;;;0.32;;
5022;SDS011;2530;47.990;7.866;2023-01-15T03:11:31;0.60;;;0.40;;
5022;SDS011;2530;47.990;7.866;2023-01-15T03:14:03;0.57;;;0.30;;
5022;SDS011;2530;47.990;7.866;2023-01-15T03:16:36;1.17;;;0.32;;
5022;SDS011;2530;47.990;7.866;2023-01-15T03:19:09;0.40;;;0.30;;
5022;SDS011;2530;47.990;7.866;2023-01-15T03:21:53;0.40;;;0.30;;
5022;SDS011;2530;47.990;7.866;2023-01-15T03:24:24;0.45;;;0.30;;
5022;SDS011;2530;47.990;7.866;2023-01-15T03:26:57;1.42;;;0.32;;
5022;SDS011;2530;47.990;7.866;2023-01-15T03:29:23;0.85;;;0.40;;
5022;SDS011;2530;47.990;7.866;2023-01-15T03:31:52;0.90;;;0.35;;
5022;SDS011;2530;47.990;7.866;2023-01-15T03:34:18;0.50;;;0.30;;
5022;SDS011;2530;47.990;7.866;2023-01-15T03:36:44;0.68;;;0.30;;
5022;SDS011;2530;47.990;7.866;2023-01-15T03:39:09;1.00;;;0.30;;
5022;SDS011;2530;47.990;7.866;2023-01-15T03:41:39;0.50;;;0.30;;
5022;SDS011;2530;47.990;7.866;2023-01-15T03:47:03;0.50;;;0.30;;
5022;SDS011;2530;47.990;7.866;2023-01-15T03:49:55;0.43;;;0.30;;
5022;SDS011;2530;47.990;7.866;2023-01-15T03:55:11;1.02;;;0.30;;
5022;SDS011;2530;47.990;7.866;2023-01-15T04:02:58;0.50;;;0.30;;
5022;SDS011;2530;47.990;7.866;2023-01-15T04:05:25;0.70;;;0.30;;
5022;SDS011;2530;47.990;7.866;2023-01-15T04:07:53;0.43;;;0.30;;
5022;SDS011;2530;47.990;7.866;2023-01-15T04:10:21;0.60;;;0.30;;
5022;SDS011;2530;47.990;7.866;2023-01-15T04:12:46;0.40;;;0.30;;
5022;SDS011;2530;47.990;7.866;2023-01-15T04:15:13;0.40;;;0.30;;
5022;SDS011;2530;47.990;7.866;2023-01-15T04:17:39;0.60;;;0.30;;
5022;SDS011;2530;47.990;7.866;2023-01-15T04:20:05;0.70;;;0.40;;
5022;SDS011;2530;47.990;7.866;2023-01-15T04:22:31;0.47;;;0.40;;
5022;SDS011;2530;47.990;7.866;2023-01-15T04:24:57;0.50;;;0.30;;
5022;SDS011;2530;47.990;7.866;2023-01-15T04:27:22;0.40;;;0.30;;
5022;SDS011;2530;47.990;7.866;2023-01-15T04:29:48;0.77;;;0.47;;
5022;SDS011;2530;47.990;7.866;2023-01-15T04:32:13;0.80;;;0.40;;
5022;SDS011;2530;47.990;7.866;2023-01-15T04:34:39;0.40;;;0.30;;
5022;SDS011;2530;47.990;7.866;2023-01-15T04:37:05;0.50;;;0.30;;
5022;SDS011;2530;47.990;7.866;2023-01-15T04:39:30;0.60;;;0.30;;
5022;SDS011;2530;47.990;7.866;2023-01-15T04:41:56;0.50;;;0.30;;
5022;SDS011;2530;47.990;7.866;2023-01-15T04:44:40;0.90;;;0.30;;
5022;SDS011;2530;47.990;7.866;2023-01-15T04:47:06;0.40;;;0.30;;
5022;SDS011;2530;47.990;7.866;2023-01-15T04:49:32;1.30;;;0.40;;
5022;SDS011;2530;47.990;7.866;2023-01-15T04:51:58;0.50;;;0.30;;
5022;SDS011;2530;47.990;7.866;2023-01-15T04:54:24;0.40;;;0.30;;
5022;SDS011;2530;47.990;7.866;2023-01-15T04:56:50;1.45;;;0.30;;
5022;SDS011;2530;47.990;7.866;2023-01-15T04:59:18;1.30;;;0.40;;
5022;SDS011;2530;47.990;7.866;2023-01-15T05:01:45;0.70;;;0.50;;
5022;SDS011;2530;47.990;7.866;2023-01-15T05:04:10;0.50;;;0.30;;
5022;SDS011;2530;47.990;7.866;2023-01-15T05:06:36;0.40;;;0.30;;
5022;SDS011;2530;47.990;7.866;2023-01-15T05:09:02;0.60;;;0.30;;
5022;SDS011;2530;47.990;7.866;2023-01-15T05:11:29;0.50;;;0.40;;
5022;SDS011;2530;47.990;7.866;2023-01-15T05:13:55;0.70;;;0.40;;
5022;SDS011;2530;47.990;7.866;2023-01-15T05:16:24;0.53;;;0.30;;
5022;SDS011;2530;47.990;7.866;2023-01-15T05:18:52;1.30;;;0.30;;
5022;SDS011;2530;47.990;7.866;2023-01-15T05:21:20;1.00;;;0.30;;
5022;SDS011;2530;47.990;7.866;2023-01-15T05:23:48;0.75;;;0.40;;
5022;SDS011;2530;47.990;7.866;2023-01-15T05:26:14;0.75;;;0.50;;
5022;SDS011;2530;47.990;7.866;2023-01-15T05:28:40;0.50;;;0.30;;
5022;SDS011;2530;47.990;7.866;2023-01-15T05:31:07;0.50;;;0.40;;
5022;SDS011;2530;47.990;7.866;2023-01-15T05:33:34;0.95;;;0.60;;
5022;SDS011;2530;47.990;7.866;2023-01-15T05:36:05;0.80;;;0.40;;
5022;SDS011;2530;47.990;7.866;2023-01-15T05:38:35;0.90;;;0.40;;
5022;SDS011;2530;47.990;7.866;2023-01-15T05:41:04;0.50;;;0.40;;
5022;SDS011;2530;47.990;7.866;2023-01-15T05:43:49;0.60;;;0.50;;
5022;SDS011;2530;47.990;7.866;2023-01-15T05:46:16;0.67;;;0.47;;
5022;SDS011;2530;47.990;7.866;2023-01-15T05:48:41;0.70;;;0.40;;
5022;SDS011;2530;47.990;7.866;2023-01-15T05:51:07;0.60;;;0.40;;
5022;SDS011;2530;47.990;7.866;2023-01-15T05:53:32;0.60;;;0.40;;
5022;SDS011;2530;47.990;7.866;2023-01-15T05:56:02;2.70;;;0.40;;
5022;SDS011;2530;47.990;7.866;2023-01-15T05:58:28;1.10;;;0.50;;
5022;SDS011;2530;47.990;7.866;2023-01-15T06:00:54;0.98;;;0.50;;
5022;SDS011;2530;47.990;7.866;2023-01-15T06:03:20;0.43;;;0.40;;
5022;SDS011;2530;47.990;7.866;2023-01-15T06:05:49;0.90;;;0.47;;
5022;SDS011;2530;47.990;7.866;2023-01-15T06:08:15;0.70;;;0.40;;
5022;SDS011;2530;47.990;7.866;2023-01-15T06:10:43;0.50;;;0.40;;
5022;SDS011;2530;47.990;7.866;2023-01-15T06:13:09;1.20;;;0.40;;
5022;SDS011;2530;47.990;7.866;2023-01-15T06:15:35;1.20;;;0.50;;
5022;SDS011;2530;47.990;7.866;2023-01-15T06:18:00;0.80;;;0.40;;
5022;SDS011;2530;47.990;7.866;2023-01-15T06:20:26;0.70;;;0.40;;
5022;SDS011;2530;47.990;7.866;2023-01-15T06:22:51;0.50;;;0.50;;
5022;SDS011;2530;47.990;7.866;2023-01-15T06:25:17;0.70;;;0.50;;
5022;SDS011;2530;47.990;7.866;2023-01-15T06:27:42;0.60;;;0.40;;
5022;SDS011;2530;47.990;7.866;2023-01-15T06:30:09;1.60;;;0.60;;
5022;SDS011;2530;47.990;7.866;2023-01-15T06:32:35;0.55;;;0.50;;
5022;SDS011;2530;47.990;7.866;2023-01-15T06:35:01;1.17;;;0.60;;
5022;SDS011;2530;47.990;7.866;2023-01-15T06:37:26;1.00;;;0.60;;
5022;SDS011;2530;47.990;7.866;2023-01-15T06:39:52;1.80;;;0.60;;
5022;SDS011;2530;47.990;7.866;2023-01-15T06:42:17;1.20;;;0.83;;
5022;SDS011;2530;47.990;7.866;2023-01-15T06:45:01;0.60;;;0.50;;
5022;SDS011;2530;47.990;7.866;2023-01-15T06:47:46;0.52;;;0.40;;
5022;SDS011;2530;47.990;7.866;2023-01-15T06:50:12;0.60;;;0.52;;
5022;SDS011;2530;47.990;7.866;2023-01-15T06:52:38;0.50;;;0.43;;
5022;SDS011;2530;47.990;7.866;2023-01-15T06:55:04;0.80;;;0.40;;
5022;SDS011;2530;47.990;7.866;2023-01-15T06:57:29;0.60;;;0.50;;
5022;SDS011;2530;47.990;7.866;2023-01-15T06:59:55;0.60;;;0.40;;
5022;SDS011;2530;47.990;7.866;2023-01-15T07:02:20;0.50;;;0.30;;
5022;SDS011;2530;47.990;7.866;2023-01-15T07:04:46;1.20;;;0.30;;
5022;SDS011;2530;47.990;7.866;2023-01-15T07:07:16;0.80;;;0.40;;
5022;SDS011;2530;47.990;7.866;2023-01-15T07:09:43;0.50;;;0.40;;
5022;SDS011;2530;47.990;7.866;2023-01-15T07:12:09;0.50;;;0.40;;
5022;SDS011;2530;47.990;7.866;2023-01-15T07:14:34;0.50;;;0.40;;
5022;SDS011;2530;47.990;7.866;2023-01-15T07:17:00;0.40;;;0.30;;
5022;SDS011;2530;47.990;7.866;2023-01-15T07:19:26;0.73;;;0.40;;
5022;SDS011;2530;47.990;7.866;2023-01-15T07:21:52;0.60;;;0.40;;
5022;SDS011;2530;47.990;7.866;2023-01-15T07:24:18;0.40;;;0.30;;
5022;SDS011;2530;47.990;7.866;2023-01-15T07:26:44;0.50;;;0.40;;
5022;SDS011;2530;47.990;7.866;2023-01-15T07:29:10;0.40;;;0.30;;
5022;SDS011;2530;47.990;7.866;2023-01-15T07:31:36;0.93;;;0.40;;
5022;SDS011;2530;47.990;7.866;2023-01-15T07:34:02;0.50;;;0.40;;
5022;SDS011;2530;47.990;7.866;2023-01-15T07:36:28;0.50;;;0.40;;
5022;SDS011;2530;47.990;7.866;2023-01-15T07:38:53;0.50;;;0.30;;
5022;SDS011;2530;47.990;7.866;2023-01-15T07:41:19;0.40;;;0.40;;
5022;SDS011;2530;47.990;7.866;2023-01-15T07:44:03;0.50;;;0.32;;
5022;SDS011;2530;47.990;7.866;2023-01-15T07:46:47;0.40;;;0.40;;
5022;SDS011;2530;47.990;7.866;2023-01-15T07:49:31;0.80;;;0.50;;
5022;SDS011;2530;47.990;7.866;2023-01-15T07:52:13;0.50;;;0.40;;
5022;SDS011;2530;47.990;7.866;2023-01-15T07:54:43;0.60;;;0.50;;
5022;SDS011;2530;47.990;7.866;2023-01-15T07:57:09;0.50;;;0.40;;
5022;SDS011;2530;47.990;7.866;2023-01-15T07:59:36;0.70;;;0.40;;
5022;SDS011;2530;47.990;7.866;2023-01-15T08:02:02;1.00;;;0.50;;
5022;SDS011;2530;47.990;7.866;2023-01-15T08:04:28;0.50;;;0.30;;
5022;SDS011;2530;47.990;7.866;2023-01-15T08:06:53;0.60;;;0.40;;
5022;SDS011;2530;47.990;7.866;2023-01-15T08:09:19;0.50;;;0.30;;
5022;SDS011;2530;47.990;7.866;2023-01-15T08:11:44;0.52;;;0.40;;
5022;SDS011;2530;47.990;7.866;2023-01-15T08:14:28;0.70;;;0.40;;
5022;SDS011;2530;47.990;7.866;2023-01-15T08:17:12;0.70;;;0.40;;
5022;SDS011;2530;47.990;7.866;2023-01-15T08:19:38;0.50;;;0.30;;
5022;SDS011;2530;47.990;7.866;2023-01-15T08:22:03;0.50;;;0.30;;
5022;SDS011;2530;47.990;7.866;2023-01-15T08:24:29;0.40;;;0.30;;
5022;SDS011;2530;47.990;7.866;2023-01-15T08:26:54;0.50;;;0.40;;
5022;SDS011;2530;47.990;7.866;2023-01-15T08:29:20;0.50;;;0.30;;
5022;SDS011;2530;47.990;7.866;2023-01-15T08:31:46;1.40;;;0.30;;
5022;SDS011;2530;47.990;7.866;2023-01-15T08:34:11;0.60;;;0.40;;
5022;SDS011;2530;47.990;7.866;2023-01-15T08:36:37;0.50;;;0.40;;
5022;SDS011;2530;47.990;7.866;2023-01-15T08:39:03;0.80;;;0.50;;
5022;SDS011;2530;47.990;7.866;2023-01-15T08:41:29;0.80;;;0.60;;
5022;SDS011;2530;47.990;7.866;2023-01-15T08:43:55;1.10;;;1.00;;
5022;SDS011;2530;47.990;7.866;2023-01-15T08:46:20;0.93;;;0.73;;
5022;SDS011;2530;47.990;7.866;2023-01-15T08:48:46;0.50;;;0.50;;
5022;SDS011;2530;47.990;7.866;2023-01-15T08:51:12;0.90;;;0.50;;
5022;SDS011;2530;47.990;7.866;2023-01-15T08:53:38;0.45;;;0.30;;
5022;SDS011;2530;47.990;7.866;2023-01-15T08:56:04;0.70;;;0.30;;
5022;SDS011;2530;47.990;7.866;2023-01-15T08:58:37;0.90;;;0.60;;
5022;SDS011;2530;47.990;7.866;2023-01-15T09:01:06;0.65;;;0.50;;
5022;SDS011;2530;47.990;7.866;2023-01-15T09:03:33;0.80;;;0.52;;
5022;SDS011;2530;47.990;7.866;2023-01-15T09:05:59;0.63;;;0.40;;
5022;SDS011;2530;47.990;7.866;2023-01-15T09:08:26;0.82;;;0.60;;
5022;SDS011;2530;47.990;7.866;2023-01-15T09:10:56;0.60;;;0.50;;
5022;SDS011;2530;47.990;7.866;2023-01-15T09:13:23;1.38;;;0.50;;
5022;SDS011;2530;47.990;7.866;2023-01-15T09:15:49;0.80;;;0.60;;
5022;SDS011;2530;47.990;7.866;2023-01-15T09:18:14;0.73;;;0.60;;
5022;SDS011;2530;47.990;7.866;2023-01-15T09:20:44;0.68;;;0.60;;
5022;SDS011;2530;47.990;7.866;2023-01-15T09:23:10;0.50;;;0.40;;
5022;SDS011;2530;47.990;7.866;2023-01-15T09:25:36;0.60;;;0.47;;
5022;SDS011;2530;47.990;7.866;2023-01-15T09:28:02;0.82;;;0.80;;
5022;SDS011;2530;47.990;7.866;2023-01-15T09:30:27;1.60;;;1.00;;
5022;SDS011;2530;47.990;7.866;2023-01-15T09:32:53;1.10;;;1.00;;
5022;SDS011;2530;47.990;7.866;2023-01-15T09:35:19;0.80;;;0.80;;
5022;SDS011;2530;47.990;7.866;2023-01-15T09:37:49;1.08;;;0.90;;
5022;SDS011;2530;47.990;7.866;2023-01-15T09:40:20;0.70;;;0.65;;
5022;SDS011;2530;47.990;7.866;2023-01-15T09:43:08;0.55;;;0.55;;
5022;SDS011;2530;47.990;7.866;2023-01-15T09:53:43;0.50;;;0.40;;
5022;SDS011;2530;47.990;7.866;2023-01-15T09:56:29;0.70;;;0.40;;
5022;SDS011;2530;47.990;7.866;2023-01-15T09:58:57;0.50;;;0.35;;
5022;SDS011;2530;47.990;7.866;2023-01-15T10:01:29;0.60;;;0.50;;
5022;SDS011;2530;47.990;7.866;2023-01-15T10:06:55;0.60;;;0.40;;
5022;SDS011;2530;47.990;7.866;2023-01-15T10:09:24;0.60;;;0.38;;
5022;SDS011;2530;47.990;7.866;2023-01-15T10:11:57;0.65;;;0.50;;
5022;SDS011;2530;47.990;7.866;2023-01-15T10:14:59;0.70;;;0.40;;
5022;SDS011;2530;47.990;7.866;2023-01-15T10:17:27;0.63;;;0.50;;
5022;SDS011;2530;47.990;7.866;2023-01-15T10:20:00;0.60;;;0.40;;
5022;SDS011;2530;47.990;7.866;2023-01-15T10:22:28;0.40;;;0.30;;
5022;SDS011;2530;47.990;7.866;2023-01-15T10:25:10;0.40;;;0.30;;
5022;SDS011;2530;47.990;7.866;2023-01-15T10:27:39;0.80;;;0.30;;
5022;SDS011;2530;47.990;7.866;2023-01-15T10:30:15;0.50;;;0.30;;
5022;SDS011;2530;47.990;7.866;2023-01-15T10:33:03;0.50;;;0.40;;
5022;SDS011;2530;47.990;7.866;2023-01-15T10:35:53;0.40;;;0.30;;
5022;SDS011;2530;47.990;7.866;2023-01-15T10:38:34;1.20;;;0.30;;
5022;SDS011;2530;47.990;7.866;2023-01-15T10:44:27;0.80;;;0.50;;
5022;SDS011;2530;47.990;7.866;2023-01-15T10:47:16;2.00;;;0.60;;
5022;SDS011;2530;47.990;7.866;2023-01-15T10:49:46;0.68;;;0.50;;
5022;SDS011;2530;47.990;7.866;2023-01-15T10:52:32;1.00;;;0.70;;
5022;SDS011;2530;47.990;7.866;2023-01-15T10:57:53;0.70;;;0.45;;
5022;SDS011;2530;47.990;7.866;2023-01-15T11:00:24;0.60;;;0.40;;
5022;SDS011;2530;47.990;7.866;2023-01-15T11:05:30;0.60;;;0.40;;
5022;SDS011;2530;47.990;7.866;2023-01-15T11:07:57;0.70;;;0.43;;
5022;SDS011;2530;47.990;7.866;2023-01-15T11:10:23;1.40;;;0.40;;
5022;SDS011;2530;47.990;7.866;2023-01-15T11:12:53;0.50;;;0.50;;
5022;SDS011;2530;47.990;7.866;2023-01-15T11:15:49;0.70;;;0.70;;
5022;SDS011;2530;47.990;7.866;2023-01-15T11:18:34;0.90;;;0.73;;
5022;SDS011;2530;47.990;7.866;2023-01-15T11:21:22;0.60;;;0.50;;
5022;SDS011;2530;47.990;7.866;2023-01-15T11:23:48;0.57;;;0.40;;
5022;SDS011;2530;47.990;7.866;2023-01-15T11:26:16;0.70;;;0.50;;
5022;SDS011;2530;47.990;7.866;2023-01-15T11:28:49;0.70;;;0.60;;
5022;SDS011;2530;47.990;7.866;2023-01-15T11:31:16;0.80;;;0.50;;
5022;SDS011;2530;47.990;7.866;2023-01-15T11:33:54;0.90;;;0.60;;
5022;SDS011;2530;47.990;7.866;2023-01-15T11:36:23;0.80;;;0.53;;
5022;SDS011;2530;47.990;7.866;2023-01-15T11:38:50;0.80;;;0.60;;
5022;SDS011;2530;47.990;7.866;2023-01-15T11:41:37;1.10;;;0.70;;
5022;SDS011;2530;47.990;7.866;2023-01-15T11:44:21;1.35;;;0.73;;
5022;SDS011;2530;47.990;7.866;2023-01-15T11:47:12;1.20;;;0.70;;
5022;SDS011;2530;47.990;7.866;2023-01-15T11:49:59;1.50;;;1.00;;
5022;SDS011;2530;47.990;7.866;2023-01-15T11:52:47;1.52;;;0.50;;
5022;SDS011;2530;47.990;7.866;2023-01-15T11:55:20;0.90;;;0.60;;
5022;SDS011;2530;47.990;7.866;2023-01-15T11:57:48;1.40;;;0.50;;
5022;SDS011;2530;47.990;7.866;2023-01-15T12:00:21;1.20;;;0.60;;
5022;SDS011;2530;47.990;7.866;2023-01-15T12:02:50;1.30;;;0.40;;
5022;SDS011;2530;47.990;7.866;2023-01-15T12:05:26;0.80;;;0.70;;
5022;SDS011;2530;47.990;7.866;2023-01-15T12:07:56;0.90;;;0.60;;
5022;SDS011;2530;47.990;7.866;2023-01-15T12:10:40;0.88;;;0.77;;
5022;SDS011;2530;47.990;7.866;2023-01-15T12:24:55;0.60;;;0.50;;
5022;SDS011;2530;47.990;7.866;2023-01-15T12:36:07;0.90;;;0.60;;
5022;SDS011;2530;47.990;7.866;2023-01-15T12:38:49;3.20;;;0.50;;
5022;SDS011;2530;47.990;7.866;2023-01-15T12:41:27;1.60;;;0.60;;
5022;SDS011;2530;47.990;7.866;2023-01-15T12:45:00;3.20;;;1.80;;
5022;SDS011;2530;47.990;7.866;2023-01-15T12:47:40;1.50;;;0.60;;
5022;SDS011;2530;47.990;7.866;2023-01-15T12:52:36;1.90;;;0.70;;
5022;SDS011;2530;47.990;7.866;2023-01-15T12:55:18;1.20;;;0.88;;
5022;SDS011;2530;47.990;7.866;2023-01-15T12:57:47;1.40;;;0.80;;
5022;SDS011;2530;47.990;7.866;2023-01-15T13:00:24;1.50;;;0.70;;
5022;SDS011;2530;47.990;7.866;2023-01-15T13:05:53;1.00;;;0.73;;
5022;SDS011;2530;47.990;7.866;2023-01-15T13:08:23;1.27;;;0.60;;
5022;SDS011;2530;47.990;7.866;2023-01-15T13:10:51;0.90;;;0.40;;
5022;SDS011;2530;47.990;7.866;2023-01-15T13:13:18;0.80;;;0.60;;
5022;SDS011;2530;47.990;7.866;2023-01-15T13:15:57;1.40;;;0.70;;
5022;SDS011;2530;47.990;7.866;2023-01-15T13:18:50;1.60;;;0.70;;
5022;SDS011;2530;47.990;7.866;2023-01-15T13:21:41;1.10;;;0.50;;
5022;SDS011;2530;47.990;7.866;2023-01-15T13:24:23;1.88;;;0.60;;
5022;SDS011;2530;47.990;7.866;2023-01-15T13:30:20;2.60;;;1.00;;
5022;SDS011;2530;47.990;7.866;2023-01-15T13:32:52;0.80;;;0.45;;
5022;SDS011;2530;47.990;7.866;2023-01-15T13:35:26;2.50;;;0.90;;
5022;SDS011;2530;47.990;7.866;2023-01-15T13:37:55;0.90;;;0.50;;
5022;SDS011;2530;47.990;7.866;2023-01-15T13:43:03;0.87;;;0.73;;
5022;SDS011;2530;47.990;7.866;2023-01-15T13:45:36;2.83;;;0.93;;
5022;SDS011;2530;47.990;7.866;2023-01-15T13:48:14;0.98;;;0.50;;
5022;SDS011;2530;47.990;7.866;2023-01-15T13:50:42;3.55;;;0.60;;
5022;SDS011;2530;47.990;7.866;2023-01-15T13:56:09;1.63;;;0.50;;
5022;SDS011;2530;47.990;7.866;2023-01-15T13:58:39;1.50;;;0.60;;
5022;SDS011;2530;47.990;7.866;2023-01-15T14:01:30;1.10;;;0.60;;
5022;SDS011;2530;47.990;7.866;2023-01-15T14:06:42;1.92;;;0.55;;
5022;SDS011;2530;47.990;7.866;2023-01-15T14:09:13;1.30;;;0.80;;
5022;SDS011;2530;47.990;7.866;2023-01-15T14:14:34;2.03;;;0.60;;
5022;SDS011;2530;47.990;7.866;2023-01-15T14:17:25;0.70;;;0.57;;
5022;SDS011;2530;47.990;7.866;2023-01-15T14:23:02;3.40;;;0.65;;
5022;SDS011;2530;47.990;7.866;2023-01-15T14:25:50;1.00;;;0.50;;
5022;SDS011;2530;47.990;7.866;2023-01-15T14:36:40;2.10;;;0.80;;
5022;SDS011;2530;47.990;7.866;2023-01-15T14:39:48;2.50;;;0.60;;
5022;SDS011;2530;47.990;7.866;2023-01-15T14:47:43;1.70;;;0.60;;
5022;SDS011;2530;47.990;7.866;2023-01-15T14:53:02;1.38;;;0.70;;
5022;SDS011;2530;47.990;7.866;2023-01-15T14:58:55;1.10;;;0.63;;
5022;SDS011;2530;47.990;7.866;2023-01-15T15:01:17;1.50;;;0.70;;
5022;SDS011;2530;47.990;7.866;2023-01-15T15:03:58;2.53;;;0.50;;
5022;SDS011;2530;47.990;7.866;2023-01-15T15:06:53;1.20;;;0.68;;
5022;SDS011;2530;47.990;7.866;2023-01-15T15:15:01;1.48;;;0.60;;
5022;SDS011;2530;47.990;7.866;2023-01-15T15:17:37;3.90;;;0.90;;
5022;SDS011;2530;47.990;7.866;2023-01-15T15:20:17;1.50;;;0.57;;
5022;SDS011;2530;47.990;7.866;2023-01-15T15:22:52;1.95;;;0.80;;
5022;SDS011;2530;47.990;7.866;2023-01-15T15:25:23;1.90;;;0.60;;
5022;SDS011;2530;47.990;7.866;2023-01-15T15:28:00;1.20;;;0.70;;
5022;SDS011;2530;47.990;7.866;2023-01-15T15:30:31;1.42;;;0.60;;
5022;SDS011;2530;47.990;7.866;2023-01-15T15:32:59;2.45;;;0.60;;
5022;SDS011;2530;47.990;7.866;2023-01-15T15:35:27;1.35;;;0.60;;
5022;SDS011;2530;47.990;7.866;2023-01-15T15:37:54;3.00;;;0.80;;
5022;SDS011;2530;47.990;7.866;2023-01-15T15:40:25;1.77;;;0.70;;
5022;SDS011;2530;47.990;7.866;2023-01-15T15:43:00;1.60;;;0.90;;
5022;SDS011;2530;47.990;7.866;2023-01-15T15:45:56;1.75;;;0.90;;
5022;SDS011;2530;47.990;7.866;2023-01-15T15:48:40;1.95;;;0.80;;
5022;SDS011;2530;47.990;7.866;2023-01-15T15:51:28;0.80;;;0.70;;
5022;SDS011;2530;47.990;7.866;2023-01-15T15:54:09;1.88;;;1.13;;
5022;SDS011;2530;47.990;7.866;2023-01-15T15:57:03;4.70;;;0.80;;
5022;SDS011;2530;47.990;7.866;2023-01-15T15:59:49;2.40;;;0.70;;
5022;SDS011;2530;47.990;7.866;2023-01-15T16:02:23;3.40;;;1.10;;
5022;SDS011;2530;47.990;7.866;2023-01-15T16:05:03;1.30;;;0.60;;
5022;SDS011;2530;47.990;7.866;2023-01-15T16:07:44;2.15;;;0.80;;
5022;SDS011;2530;47.990;7.866;2023-01-15T16:10:14;1.90;;;0.70;;
5022;SDS011;2530;47.990;7.866;2023-01-15T16:12:44;2.40;;;0.90;;
5022;SDS011;2530;47.990;7.866;2023-01-15T16:15:14;2.33;;;1.00;;
5022;SDS011;2530;47.990;7.866;2023-01-15T16:17:44;2.30;;;0.90;;
5022;SDS011;2530;47.990;7.866;2023-01-15T16:20:15;2.50;;;0.80;;
5022;SDS011;2530;47.990;7.866;2023-01-15T16:22:43;1.30;;;0.60;;
5022;SDS011;2530;47.990;7.866;2023-01-15T16:25:23;3.72;;;1.00;;
5022;SDS011;2530;47.990;7.866;2023-01-15T16:27:55;1.95;;;0.80;;
5022;SDS011;2530;47.990;7.866;2023-01-15T16:30:20;1.33;;;0.80;;
5022;SDS011;2530;47.990;7.866;2023-01-15T16:32:46;1.20;;;0.50;;
5022;SDS011;2530;47.990;7.866;2023-01-15T16:37:41;2.28;;;1.10;;
5022;SDS011;2530;47.990;7.866;2023-01-15T16:40:14;2.13;;;0.90;;
5022;SDS011;2530;47.990;7.866;2023-01-15T16:42:47;1.63;;;0.70;;
5022;SDS011;2530;47.990;7.866;2023-01-15T16:50:51;1.45;;;0.90;;
5022;SDS011;2530;47.990;7.866;2023-01-15T16:53:36;2.50;;;0.82;;
5022;SDS011;2530;47.990;7.866;2023-01-15T16:56:03;2.70;;;1.33;;
5022;SDS011;2530;47.990;7.866;2023-01-15T16:58:47;2.22;;;1.65;;
5022;SDS011;2530;47.990;7.866;2023-01-15T17:01:32;2.20;;;0.93;;
5022;SDS011;2530;47.990;7.866;2023-01-15T17:04:02;1.13;;;0.98;;
5022;SDS011;2530;47.990;7.866;2023-01-15T17:06:28;2.70;;;0.80;;
5022;SDS011;2530;47.990;7.866;2023-01-15T17:08:54;2.00;;;1.20;;
5022;SDS011;2530;47.990;7.866;2023-01-15T17:11:24;2.67;;;0.80;;
5022;SDS011;2530;47.990;7.866;2023-01-15T17:19:47;1.70;;;0.90;;
5022;SDS011;2530;47.990;7.866;2023-01-15T17:22:14;1.80;;;1.20;;
5022;SDS011;2530;47.990;7.866;2023-01-15T17:24:51;3.05;;;1.10;;
5022;SDS011;2530;47.990;7.866;2023-01-15T17:27:18;2.38;;;1.10;;
5022;SDS011;2530;47.990;7.866;2023-01-15T17:29:43;3.90;;;1.00;;
5022;SDS011;2530;47.990;7.866;2023-01-15T17:32:13;1.80;;;1.10;;
5022;SDS011;2530;47.990;7.866;2023-01-15T17:34:41;2.38;;;1.00;;
5022;SDS011;2530;47.990;7.866;2023-01-15T17:37:07;1.60;;;1.00;;
5022;SDS011;2530;47.990;7.866;2023-01-15T17:39:32;3.10;;;1.00;;
5022;SDS011;2530;47.990;7.866;2023-01-15T17:41:58;3.00;;;1.10;;